Parachute, Colorado
Current Conditions -  °F | °C
As of 10:53 PM on Friday 19 Dec 2014 (Local Time) from KRIL Reporting Station
Broken Clouds Broken Clouds  
Wind Chill: 18°   Ceiling: 11000
Heat Index: 25°   Visibility: 10mi
Dew Point: 21°   Wind: 6mph
Humidity: 85%   Direction: 90°E
Pressure: 30.23"   Gusts: NA
Location:  39.45°N, 108.05°W
Report Text: KRIL 200553Z AUTO 09005KT 10SM BKN110 M04/M06 A3023 RMK AO2 SLP260 T10391061 10011 21039 53004
Loading
Personal Weather Stations






























Interactive Weather Map New forecast layout! Learn more

10-Day Weather Forecast

Advertisements
Track Severe Weather on mobile